Time;durP1;ratioP1;P1;durP2;ratioP2;P2;SDS_P1;SDS_P2;PMS_P1;PMS_P2;Temp;Humidity;BMP_temperature;BMP_pressure;BME280_temperature;BME280_humidity;BME280_pressure;Samples;Min_cycle;Max_cycle;Signal;HPM_P1;HPM_P2
2023/10/05 00:02:12;;;;;;;4.78;0.80;;;;;;;16.54;82.58;101984.56;7354122;19;20422;-68
2023/10/05 00:04:41;;;;;;;6.63;0.60;;;;;;;16.53;82.30;101974.06;7352279;19;20002;-66
2023/10/05 00:07:18;;;;;;;5.07;0.50;;;;;;;16.57;82.73;101980.72;7352896;19;20462;-67
2023/10/05 00:09:45;;;;;;;2.08;0.50;;;;;;;16.60;83.49;101985.75;7354821;19;20110;-67
2023/10/05 00:12:19;;;;;;;2.65;0.50;;;;;;;16.59;82.02;101982.28;7351123;19;20540;-67
2023/10/05 00:15:08;;;;;;;4.00;0.43;;;;;;;16.59;81.52;101981.44;7346385;19;20060;-67
2023/10/05 00:17:38;;;;;;;6.65;0.40;;;;;;;16.58;81.72;101975.28;7354349;19;20289;-67
2023/10/05 00:20:33;;;;;;;5.75;0.68;;;;;;;16.63;81.42;101982.75;7353259;19;20379;-67
2023/10/05 00:23:03;;;;;;;4.22;0.50;;;;;;;16.59;81.17;101974.28;7349380;19;20043;-67
2023/10/05 00:25:32;;;;;;;3.13;0.40;;;;;;;16.56;81.53;101969.25;7352922;19;20489;-67
2023/10/05 00:28:03;;;;;;;6.35;0.60;;;;;;;16.55;81.07;101970.28;7349640;19;20382;-68
2023/10/05 00:30:31;;;;;;;7.30;0.60;;;;;;;16.55;80.80;101964.13;7351188;19;20014;-67
2023/10/05 00:32:59;;;;;;;4.40;0.50;;;;;;;16.56;80.98;101979.06;7349411;19;20022;-68
2023/10/05 00:35:29;;;;;;;6.00;0.43;;;;;;;16.56;80.38;101984.38;7353656;19;20014;-67
2023/10/05 00:38:18;;;;;;;7.25;0.68;;;;;;;16.53;80.43;101985.53;7355683;19;20030;-67
2023/10/05 00:40:55;;;;;;;4.38;0.60;;;;;;;16.60;81.58;101985.75;7359659;19;20018;-67
2023/10/05 00:43:25;;;;;;;4.15;0.57;;;;;;;16.64;80.47;101992.41;7358474;19;20026;-66
2023/10/05 00:45:56;;;;;;;5.68;0.50;;;;;;;16.68;80.50;101997.22;7358020;19;20097;-68
2023/10/05 00:48:30;;;;;;;2.70;0.40;;;;;;;16.66;80.19;101996.53;7355238;19;20565;-67
2023/10/05 00:51:17;;;;;;;6.78;0.50;;;;;;;16.67;80.28;101992.91;7361170;19;20003;-68
2023/10/05 00:53:47;;;;;;;4.82;0.55;;;;;;;16.59;79.44;101984.94;7359290;19;20700;-66
2023/10/05 00:56:18;;;;;;;5.45;0.70;;;;;;;16.58;81.10;101982.38;7360161;19;20021;-67
2023/10/05 00:58:47;;;;;;;5.32;0.50;;;;;;;16.60;81.00;101981.28;7356362;19;20886;-68
2023/10/05 01:01:22;;;;;;;5.03;0.80;;;;;;;16.63;81.36;101975.63;7358067;19;20078;-66
2023/10/05 01:06:41;;;;;;;4.40;0.70;;;;;;;16.55;79.61;101980.06;7359784;19;20022;-67
2023/10/05 01:09:39;;;;;;;3.88;0.50;;;;;;;16.55;79.92;101977.41;7359504;19;20650;-67
2023/10/05 01:14:39;;;;;;;7.05;0.52;;;;;;;16.53;80.05;101968.75;7356338;19;20034;-66
2023/10/05 01:17:06;;;;;;;6.20;0.50;;;;;;;16.55;80.09;101969.44;7359647;19;20014;-67
2023/10/05 01:19:38;;;;;;;6.55;1.70;;;;;;;16.54;79.92;101965.94;7358665;19;20007;-68
2023/10/05 01:22:11;;;;;;;2.75;0.40;;;;;;;16.54;80.12;101967.78;7358262;19;20755;-67
2023/10/05 01:24:38;;;;;;;5.03;0.60;;;;;;;16.52;79.64;101967.94;7359801;19;20015;-68
2023/10/05 01:27:05;;;;;;;6.20;0.82;;;;;;;16.52;81.10;101972.41;7359683;19;20014;-66
2023/10/05 01:29:32;;;;;;;4.10;0.52;;;;;;;16.56;81.50;101973.75;7353999;19;20468;-68
2023/10/05 01:31:59;;;;;;;4.32;0.60;;;;;;;16.58;80.54;101977.94;7361110;19;20010;-67
2023/10/05 01:34:26;;;;;;;2.65;0.40;;;;;;;16.57;80.37;101980.72;7358356;19;20018;-67
2023/10/05 01:36:54;;;;;;;3.60;0.57;;;;;;;16.52;80.11;101975.06;7358955;19;20021;-68
2023/10/05 01:39:22;;;;;;;4.82;0.40;;;;;;;16.53;80.63;101974.91;7357918;19;20037;-68
2023/10/05 01:41:50;;;;;;;4.80;0.95;;;;;;;16.52;80.67;101970.59;7359497;19;20475;-67
2023/10/05 01:44:17;;;;;;;6.60;0.60;;;;;;;16.54;81.27;101960.63;7355358;19;20014;-68
2023/10/05 01:46:44;;;;;;;4.75;0.50;;;;;;;16.55;81.94;101970.28;7358525;19;20015;-68
2023/10/05 01:49:11;;;;;;;4.13;0.50;;;;;;;16.55;81.34;101951.69;7352151;19;20013;-67
2023/10/05 01:51:38;;;;;;;4.35;0.50;;;;;;;16.53;81.19;101964.28;7340308;19;20102;-66
2023/10/05 01:54:11;;;;;;;4.50;0.50;;;;;;;16.50;80.93;101963.78;7352504;19;20075;-65
2023/10/05 01:56:39;;;;;;;4.32;0.50;;;;;;;16.49;81.16;101964.78;7358477;19;20015;-66
2023/10/05 01:59:07;;;;;;;3.83;0.60;;;;;;;16.46;83.02;101947.31;7354108;19;20010;-67
2023/10/05 02:01:39;;;;;;;5.72;0.65;;;;;;;16.49;82.26;101948.84;7356209;19;20483;-68
2023/10/05 02:04:07;;;;;;;8.82;0.60;;;;;;;16.48;81.44;101950.66;7357104;19;20020;-68
2023/10/05 02:06:45;;;;;;;4.32;0.50;;;;;;;16.46;81.63;101952.63;7357718;19;20360;-68
2023/10/05 02:09:14;;;;;;;5.25;0.60;;;;;;;16.46;81.78;101962.44;7355295;19;20335;-67
2023/10/05 02:11:41;;;;;;;5.65;0.60;;;;;;;16.48;82.76;101958.63;7359038;19;20466;-67
2023/10/05 02:14:12;;;;;;;4.65;0.50;;;;;;;16.48;82.15;101961.28;7350702;19;20483;-68
2023/10/05 02:16:41;;;;;;;2.83;0.50;;;;;;;16.47;81.48;101959.63;7354056;19;20349;-66
2023/10/05 02:19:08;;;;;;;4.32;0.60;;;;;;;16.41;81.29;101954.09;7348495;19;20014;-68
2023/10/05 02:21:36;;;;;;;4.40;0.40;;;;;;;16.36;81.43;101951.09;7354073;19;20074;-68
2023/10/05 02:24:17;;;;;;;4.47;0.40;;;;;;;16.29;81.58;101945.63;7356815;19;20043;-68
2023/10/05 02:29:27;;;;;;;4.65;0.60;;;;;;;16.30;82.80;101946.47;7349581;19;20050;-67
2023/10/05 02:32:04;;;;;;;2.78;0.47;;;;;;;16.29;82.48;101937.66;7358024;19;20501;-67
2023/10/05 02:34:42;;;;;;;3.97;0.50;;;;;;;16.32;82.43;101940.00;7352999;19;20035;-68
2023/10/05 02:37:11;;;;;;;5.15;0.50;;;;;;;16.32;82.63;101933.84;7353693;19;20483;-67
2023/10/05 02:39:40;;;;;;;8.27;1.05;;;;;;;16.31;82.54;101935.66;7355737;19;20035;-67
2023/10/05 02:42:12;;;;;;;3.75;0.70;;;;;;;16.30;83.64;101941.16;7353981;19;20434;-67
2023/10/05 02:44:40;;;;;;;5.20;0.75;;;;;;;16.29;83.14;101945.63;7332351;19;20006;-67
2023/10/05 02:47:14;;;;;;;4.32;0.47;;;;;;;16.26;82.31;101930.84;7357750;19;20019;-68
2023/10/05 02:49:47;;;;;;;6.78;0.75;;;;;;;16.26;82.54;101932.66;7350872;19;20104;-67
2023/10/05 02:52:16;;;;;;;6.60;0.57;;;;;;;16.26;82.32;101936.16;7355072;19;20022;-68
2023/10/05 02:54:45;;;;;;;6.47;0.40;;;;;;;16.29;82.63;101931.53;7350286;19;20683;-67
2023/10/05 02:57:16;;;;;;;4.43;0.50;;;;;;;16.31;82.60;101933.00;7351285;19;20022;-67
2023/10/05 02:59:43;;;;;;;6.70;0.50;;;;;;;16.34;83.47;101938.00;7354377;19;20018;-68
2023/10/05 03:02:14;;;;;;;3.65;0.43;;;;;;;16.38;82.88;101934.03;7358105;19;20114;-68
2023/10/05 03:05:16;;;;;;;6.82;0.60;;;;;;;16.43;82.88;101931.72;7345788;19;21091;-67
2023/10/05 03:07:40;;;;;;;3.40;0.40;;;;;;;16.42;82.21;101937.19;7353837;19;20376;-67
2023/10/05 03:10:13;;;;;;;3.72;0.47;;;;;;;16.39;81.92;101932.22;7337739;19;21714;-68
2023/10/05 03:12:40;;;;;;;6.93;0.55;;;;;;;16.33;82.23;101933.69;7354750;19;20701;-66
2023/10/05 03:15:08;;;;;;;6.00;0.47;;;;;;;16.33;82.85;101936.34;7355043;19;21356;-67
2023/10/05 03:17:37;;;;;;;5.32;0.40;;;;;;;16.35;82.62;101929.06;7355087;19;20558;-68
2023/10/05 03:20:15;;;;;;;3.22;0.60;;;;;;;16.32;82.37;101929.38;7352101;19;20052;-66
2023/10/05 03:22:45;;;;;;;6.57;0.60;;;;;;;16.27;82.38;101932.50;7352323;19;20534;-67
2023/10/05 03:25:14;;;;;;;4.57;1.20;;;;;;;16.24;82.63;101932.84;7355909;19;20034;-67
2023/10/05 03:27:45;;;;;;;3.30;0.50;;;;;;;16.21;82.54;101932.31;7350695;19;20021;-67
2023/10/05 03:30:14;;;;;;;6.93;0.60;;;;;;;16.17;83.93;101915.88;7350830;19;20078;-66
2023/10/05 03:32:41;;;;;;;7.35;0.65;;;;;;;16.15;83.83;101911.75;7353926;19;20090;-67
2023/10/05 03:35:13;;;;;;;5.15;0.40;;;;;;;16.17;83.48;101915.06;7337177;19;20713;-67
2023/10/05 03:37:41;;;;;;;3.33;0.40;;;;;;;16.16;83.56;101922.19;7350380;19;20026;-66
2023/10/05 03:40:19;;;;;;;2.35;0.40;;;;;;;16.16;83.76;101913.38;7355600;19;20860;-66
2023/10/05 03:42:48;;;;;;;2.50;0.43;;;;;;;16.15;83.46;101922.38;7351353;19;20670;-67
2023/10/05 03:45:16;;;;;;;4.47;1.35;;;;;;;16.10;84.14;101919.38;7352650;19;20111;-68
2023/10/05 03:47:43;;;;;;;5.78;1.35;;;;;;;16.14;84.52;101929.50;7353061;19;20429;-67
2023/10/05 03:50:16;;;;;;;4.75;0.80;;;;;;;16.14;83.97;101928.66;7350971;19;20405;-66
2023/10/05 03:52:45;;;;;;;3.38;0.70;;;;;;;16.09;83.33;101926.50;7351571;19;20025;-67
2023/10/05 03:55:12;;;;;;;5.43;0.50;;;;;;;16.08;83.62;101932.81;7352162;19;20002;-67
2023/10/05 03:57:41;;;;;;;3.95;0.40;;;;;;;16.06;83.82;101931.28;7351566;19;20018;-67
2023/10/05 04:00:23;;;;;;;4.15;0.60;;;;;;;16.08;84.04;101931.97;7345768;19;20381;-66
2023/10/05 04:02:54;;;;;;;5.60;0.57;;;;;;;16.08;84.84;101930.16;7348518;19;20197;-66
2023/10/05 04:05:22;;;;;;;8.75;0.68;;;;;;;16.12;85.50;101925.34;7351467;19;20652;-67
2023/10/05 04:07:52;;;;;;;5.95;0.50;;;;;;;16.11;84.70;101921.84;7353049;19;20015;-66
2023/10/05 04:10:38;;;;;;;6.32;0.50;;;;;;;16.11;84.04;101926.31;7352520;19;20014;-67
2023/10/05 04:13:05;;;;;;;2.92;0.40;;;;;;;16.07;83.91;101920.50;7349546;19;20043;-66
2023/10/05 04:15:32;;;;;;;7.25;0.50;;;;;;;16.09;84.59;101915.03;7359817;19;20474;-67
2023/10/05 04:17:59;;;;;;;6.40;0.70;;;;;;;16.11;84.41;101905.91;7352608;19;20969;-66
2023/10/05 04:20:29;;;;;;;6.88;0.47;;;;;;;16.05;83.57;101906.56;7359279;19;20342;-66
2023/10/05 04:22:56;;;;;;;5.55;0.40;;;;;;;16.06;84.88;101910.03;7361836;19;20014;-67
2023/10/05 04:25:23;;;;;;;3.88;0.47;;;;;;;16.07;84.59;101906.41;7362067;19;20014;-67
2023/10/05 04:27:52;;;;;;;4.22;0.43;;;;;;;16.07;84.22;101920.50;7340560;19;20053;-67
2023/10/05 04:30:21;;;;;;;9.13;0.60;;;;;;;16.10;84.15;101914.88;7353593;19;20062;-67
2023/10/05 04:32:48;;;;;;;6.60;0.85;;;;;;;16.11;84.13;101915.69;7359985;19;20326;-67
2023/10/05 04:35:22;;;;;;;6.90;0.40;;;;;;;16.09;83.83;101923.00;7361274;19;20016;-67
2023/10/05 04:37:50;;;;;;;5.03;0.50;;;;;;;16.11;84.09;101908.56;7358972;19;20463;-68
2023/10/05 04:40:19;;;;;;;4.40;0.43;;;;;;;16.15;84.46;101923.16;7360679;19;20018;-67
2023/10/05 04:42:46;;;;;;;5.57;0.40;;;;;;;16.18;84.23;101936.16;7357443;19;20608;-66
2023/10/05 04:45:14;;;;;;;4.20;0.40;;;;;;;16.20;84.35;101928.81;7355913;19;20771;-67
2023/10/05 04:47:41;;;;;;;3.33;0.35;;;;;;;16.19;83.77;101924.53;7358938;19;20487;-66
2023/10/05 04:50:13;;;;;;;6.20;1.20;;;;;;;16.16;83.46;101916.03;7359839;19;20115;-67
2023/10/05 04:52:41;;;;;;;2.70;0.50;;;;;;;16.14;83.52;101905.59;7334716;19;20014;-67
2023/10/05 04:56:00;;;;;;;10.38;1.40;;;;;;;16.13;83.92;101906.59;7356849;19;20273;-65
2023/10/05 05:06:14;;;;;;;6.75;0.40;;;;;;;16.17;83.77;101926.50;7357498;19;20018;-68
2023/10/05 05:08:40;;;;;;;3.30;0.50;;;;;;;16.17;84.08;101933.66;7358521;19;20010;-68
2023/10/05 05:11:18;;;;;;;4.68;0.50;;;;;;;16.18;84.43;101938.81;7359489;19;20012;-68
2023/10/05 05:13:49;;;;;;;5.38;0.40;;;;;;;16.20;84.07;101950.06;7357956;19;20603;-67
2023/10/05 05:16:16;;;;;;;7.10;0.40;;;;;;;16.22;83.83;101963.22;7360298;19;20109;-67
2023/10/05 05:18:50;;;;;;;5.20;0.50;;;;;;;16.20;83.25;101967.88;7344583;19;20029;-67
2023/10/05 05:21:17;;;;;;;3.63;0.70;;;;;;;16.14;83.31;101965.84;7358459;19;20661;-66
2023/10/05 05:23:45;;;;;;;5.80;0.40;;;;;;;16.10;84.03;101965.31;7355649;19;20007;-67
2023/10/05 05:26:14;;;;;;;6.63;0.50;;;;;;;16.03;83.84;101968.78;7356694;19;20010;-66
2023/10/05 05:28:43;;;;;;;7.85;1.60;;;;;;;16.06;84.18;101957.84;7356100;19;20109;-68
2023/10/05 05:31:19;;;;;;;3.28;0.40;;;;;;;16.06;84.05;101955.19;7353332;19;20014;-67
2023/10/05 05:33:46;;;;;;;4.82;0.60;;;;;;;16.00;83.55;101954.00;7358847;19;20025;-67
2023/10/05 05:36:13;;;;;;;4.15;0.60;;;;;;;16.00;83.81;101963.81;7355573;19;20554;-68
2023/10/05 05:38:41;;;;;;;4.78;0.45;;;;;;;15.99;83.72;101972.75;7358083;19;20524;-68
2023/10/05 05:41:12;;;;;;;4.35;0.47;;;;;;;16.04;84.69;101970.47;7354074;19;20015;-67
2023/10/05 05:43:40;;;;;;;3.63;0.40;;;;;;;16.10;84.67;101972.47;7352585;19;20029;-67
2023/10/05 05:46:17;;;;;;;5.03;0.40;;;;;;;16.14;84.44;101968.50;7339335;19;20018;-68
2023/10/05 05:48:52;;;;;;;4.13;0.40;;;;;;;16.12;83.48;101970.47;7353222;19;20014;-67
2023/10/05 05:51:23;;;;;;;5.43;0.50;;;;;;;16.12;83.63;101983.75;7357277;19;20054;-67
2023/10/05 05:53:52;;;;;;;6.28;0.50;;;;;;;16.12;83.90;101983.75;7356472;19;20042;-67
2023/10/05 05:56:19;;;;;;;5.45;0.30;;;;;;;16.12;84.10;101973.13;7357915;19;20021;-66
2023/10/05 05:58:53;;;;;;;3.47;0.40;;;;;;;16.14;83.66;101976.47;7352247;19;20659;-66
2023/10/05 06:01:20;;;;;;;6.28;0.60;;;;;;;16.17;83.37;101969.00;7357058;19;20016;-67
2023/10/05 06:03:48;;;;;;;5.38;0.75;;;;;;;16.18;83.28;101972.50;7353683;19;21104;-67
2023/10/05 06:06:16;;;;;;;4.60;0.50;;;;;;;16.20;83.37;101973.19;7358319;19;20050;-66
2023/10/05 06:08:44;;;;;;;6.22;0.50;;;;;;;16.25;83.75;101973.53;7355791;19;20081;-66
2023/10/05 06:11:14;;;;;;;4.68;0.52;;;;;;;16.27;83.60;101966.22;7342260;19;21234;-67
2023/10/05 06:13:45;;;;;;;6.80;0.65;;;;;;;16.24;83.17;101959.41;7353360;19;20320;-67
2023/10/05 06:16:14;;;;;;;6.70;0.50;;;;;;;16.24;82.74;101950.59;7359149;19;20018;-68
2023/10/05 06:18:43;;;;;;;8.95;0.70;;;;;;;16.23;82.92;101957.75;7354683;19;20066;-67
2023/10/05 06:21:20;;;;;;;5.68;0.50;;;;;;;16.26;82.48;101961.88;7357365;19;20017;-67
2023/10/05 06:23:50;;;;;;;6.13;0.45;;;;;;;16.26;83.14;101959.22;7355007;19;20436;-67
2023/10/05 06:26:18;;;;;;;3.70;0.40;;;;;;;16.25;83.26;101953.06;7356419;19;20146;-67
2023/10/05 06:28:46;;;;;;;6.28;1.15;;;;;;;16.24;83.00;101954.09;7353351;19;20019;-67
2023/10/05 06:31:13;;;;;;;4.57;0.60;;;;;;;16.22;82.62;101973.81;7355613;19;20486;-67
2023/10/05 06:33:42;;;;;;;6.25;0.95;;;;;;;16.21;82.93;101978.31;7353748;19;20014;-66
2023/10/05 06:36:09;;;;;;;5.20;0.50;;;;;;;16.22;83.15;101961.38;7341649;19;20011;-67
2023/10/05 06:38:36;;;;;;;5.63;0.60;;;;;;;16.23;83.19;101968.38;7349979;19;20025;-67
2023/10/05 06:41:03;;;;;;;4.68;0.50;;;;;;;16.23;82.65;101967.53;7354982;19;20039;-68
2023/10/05 06:43:35;;;;;;;5.35;1.27;;;;;;;16.23;82.58;101971.03;7353660;19;20027;-67
2023/10/05 06:46:17;;;;;;;7.60;0.80;;;;;;;16.24;82.45;101964.72;7355515;19;20052;-66
2023/10/05 06:48:55;;;;;;;5.95;0.90;;;;;;;16.30;82.82;101979.19;7353851;19;20313;-66
2023/10/05 06:51:27;;;;;;;7.93;0.50;;;;;;;16.30;82.57;101979.19;7357847;19;20010;-67
2023/10/05 06:53:57;;;;;;;4.15;0.50;;;;;;;16.25;82.37;101984.94;7352775;19;20014;-67
2023/10/05 06:56:26;;;;;;;4.50;0.50;;;;;;;16.25;82.12;101973.53;7353665;19;20351;-67
2023/10/05 06:58:59;;;;;;;5.15;0.63;;;;;;;16.29;82.79;101987.31;7350561;19;20021;-66
2023/10/05 07:01:26;;;;;;;6.30;0.70;;;;;;;16.31;82.82;101991.44;7357204;19;20110;-67
2023/10/05 07:03:55;;;;;;;4.28;0.40;;;;;;;16.29;82.22;102017.34;7335938;19;20010;-67
2023/10/05 07:06:23;;;;;;;5.80;0.60;;;;;;;16.31;82.44;102022.50;7356816;19;21671;-66
2023/10/05 07:08:59;;;;;;;6.60;0.73;;;;;;;16.33;82.57;102031.97;7354717;19;20010;-67
2023/10/05 07:11:26;;;;;;;5.93;0.60;;;;;;;16.38;83.18;102015.56;7356929;19;20026;-67
2023/10/05 07:13:53;;;;;;;6.53;0.77;;;;;;;16.42;83.17;102019.53;7351319;19;20044;-67
2023/10/05 07:16:20;;;;;;;4.57;0.60;;;;;;;16.43;82.49;102010.59;7356687;19;20013;-67
2023/10/05 07:18:59;;;;;;;5.63;0.60;;;;;;;16.44;82.23;102012.25;7356111;19;20484;-67
2023/10/05 07:21:26;;;;;;;6.13;0.60;;;;;;;16.42;81.99;102009.75;7354666;19;20014;-66
2023/10/05 07:23:53;;;;;;;8.35;1.08;;;;;;;16.42;81.97;102003.59;7355145;19;20500;-66
2023/10/05 07:26:20;;;;;;;6.82;0.60;;;;;;;16.43;83.65;102008.75;7353999;19;20456;-68
2023/10/05 07:29:04;;;;;;;7.20;0.85;;;;;;;16.47;82.85;102006.59;7332818;19;20474;-67
2023/10/05 07:31:51;;;;;;;4.40;0.60;;;;;;;16.48;81.77;102009.13;7356405;19;20010;-67
2023/10/05 07:34:20;;;;;;;13.48;1.05;;;;;;;16.49;82.00;102002.81;7356609;19;20515;-67
2023/10/05 07:36:50;;;;;;;9.75;0.90;;;;;;;16.52;81.78;102012.28;7356828;19;20010;-67
2023/10/05 07:39:18;;;;;;;9.15;1.25;;;;;;;16.58;82.62;102008.97;7352854;19;20223;-67
2023/10/05 07:41:48;;;;;;;8.35;0.77;;;;;;;16.63;82.25;102019.97;7357649;19;20456;-66
2023/10/05 07:44:17;;;;;;;4.82;0.80;;;;;;;16.63;81.82;102018.16;7350159;19;20020;-68
2023/10/05 07:46:44;;;;;;;5.93;0.63;;;;;;;16.65;81.72;102018.84;7355501;19;20164;-67
2023/10/05 07:49:11;;;;;;;10.95;0.70;;;;;;;16.60;81.12;102021.16;7358827;19;20010;-66
2023/10/05 07:51:39;;;;;;;9.73;0.60;;;;;;;16.64;82.08;102022.47;7360375;19;20074;-66
2023/10/05 07:54:06;;;;;;;8.25;0.50;;;;;;;16.66;81.60;102028.44;7357393;19;20046;-67
2023/10/05 07:56:34;;;;;;;13.25;2.05;;;;;;;16.70;83.00;102030.78;7336819;19;20014;-67
2023/10/05 07:59:02;;;;;;;4.45;0.50;;;;;;;16.89;89.20;102025.16;7353761;19;20006;-67
2023/10/05 08:01:29;;;;;;;6.22;1.73;;;;;;;17.01;88.10;102029.19;7364820;19;20014;-66
2023/10/05 08:03:56;;;;;;;6.78;0.63;;;;;;;16.95;83.19;102022.69;7361579;19;20014;-67
2023/10/05 08:06:25;;;;;;;7.00;0.70;;;;;;;16.99;84.68;102031.16;7362605;19;20118;-67
2023/10/05 08:08:53;;;;;;;7.20;1.30;;;;;;;17.04;86.07;102031.50;7360021;19;20697;-66
2023/10/05 08:11:21;;;;;;;6.05;0.57;;;;;;;17.13;85.12;102032.31;7361176;19;20592;-67
2023/10/05 08:13:48;;;;;;;7.15;0.50;;;;;;;17.22;85.17;102042.81;7361594;19;20038;-66
2023/10/05 08:16:15;;;;;;;21.83;2.13;;;;;;;17.27;83.95;102035.16;7363215;19;20102;-67
2023/10/05 08:18:43;;;;;;;18.75;1.25;;;;;;;17.29;83.83;102050.97;7361523;19;20014;-67
2023/10/05 08:21:11;;;;;;;9.75;0.65;;;;;;;17.27;83.71;102048.47;7348176;19;20030;-67
2023/10/05 08:23:37;;;;;;;10.95;0.82;;;;;;;17.18;80.60;102053.94;7361210;19;20033;-66
2023/10/05 08:26:07;;;;;;;12.82;0.75;;;;;;;17.14;80.03;102039.31;7362849;19;20874;-66
2023/10/05 08:28:34;;;;;;;19.98;1.02;;;;;;;17.12;80.59;102046.66;7359387;19;20014;-66
2023/10/05 08:31:11;;;;;;;16.17;0.90;;;;;;;17.10;80.28;102046.81;7360661;19;20832;-68
2023/10/05 08:33:38;;;;;;;16.80;1.25;;;;;;;17.09;80.64;102056.59;7359471;19;20022;-67
2023/10/05 08:36:11;;;;;;;10.10;0.88;;;;;;;17.08;80.25;102052.28;7356994;19;20014;-67
2023/10/05 08:38:48;;;;;;;13.55;0.90;;;;;;;17.06;80.25;102051.63;7358105;19;20011;-67
2023/10/05 08:41:31;;;;;;;9.05;0.47;;;;;;;17.04;80.25;102061.59;7358764;19;20018;-67
2023/10/05 08:44:00;;;;;;;6.80;0.50;;;;;;;17.03;80.08;102059.91;7354639;19;20031;-68
2023/10/05 08:46:29;;;;;;;7.70;0.60;;;;;;;16.99;79.34;102069.22;7359661;19;20023;-67
2023/10/05 08:49:05;;;;;;;5.10;0.60;;;;;;;16.99;79.90;102068.41;7358273;19;20025;-67
2023/10/05 08:51:35;;;;;;;6.57;0.60;;;;;;;17.04;80.82;102066.06;7362423;19;20029;-68
2023/10/05 08:54:09;;;;;;;4.82;0.82;;;;;;;17.04;80.49;102066.91;7358999;19;20015;-69
2023/10/05 08:56:47;;;;;;;6.05;0.85;;;;;;;17.09;79.87;102071.72;7354402;19;20021;-67
2023/10/05 08:59:14;;;;;;;9.00;0.60;;;;;;;17.08;79.45;102078.88;7350223;19;20086;-67
2023/10/05 09:01:43;;;;;;;7.85;0.50;;;;;;;17.06;80.26;102080.88;7358950;19;20439;-66
2023/10/05 09:06:47;;;;;;;4.35;0.50;;;;;;;17.09;80.16;102074.41;7362976;19;20018;-67
2023/10/05 09:09:18;;;;;;;7.20;0.50;;;;;;;17.11;80.02;102080.41;7359197;19;20313;-66
2023/10/05 09:11:45;;;;;;;4.70;0.50;;;;;;;17.16;80.12;102082.56;7359875;19;20736;-67
2023/10/05 09:14:23;;;;;;;7.75;0.70;;;;;;;17.21;80.49;102088.22;7354885;19;20015;-66
2023/10/05 09:16:55;;;;;;;7.28;1.00;;;;;;;17.28;80.26;102089.19;7358582;19;20359;-66
2023/10/05 09:19:29;;;;;;;3.67;0.70;;;;;;;17.31;80.37;102089.72;7358620;19;20068;-67
2023/10/05 09:24:30;;;;;;;8.00;0.75;;;;;;;17.37;79.88;102101.53;7357966;19;20022;-67
2023/10/05 09:27:12;;;;;;;6.55;1.13;;;;;;;17.42;78.80;102104.53;7359955;19;20011;-67
2023/10/05 09:29:40;;;;;;;4.37;0.50;;;;;;;17.36;78.28;102107.84;7354412;19;20022;-67
2023/10/05 09:32:22;;;;;;;4.70;0.60;;;;;;;17.32;78.52;102102.00;7359013;19;20391;-67
2023/10/05 09:34:49;;;;;;;6.15;0.50;;;;;;;17.29;78.17;102109.50;7358002;19;21096;-67
2023/10/05 09:37:23;;;;;;;9.10;0.63;;;;;;;17.37;79.86;102107.66;7358755;19;20018;-66
2023/10/05 09:39:53;;;;;;;11.48;1.30;;;;;;;17.43;79.12;102100.84;7359601;19;20025;-66
2023/10/05 09:42:25;;;;;;;9.25;1.27;;;;;;;17.45;78.07;102105.03;7358786;19;20637;-66
2023/10/05 09:44:57;;;;;;;8.38;0.70;;;;;;;17.49;77.91;102103.69;7353738;19;20016;-68
2023/10/05 09:47:27;;;;;;;8.87;1.03;;;;;;;17.57;77.54;102102.88;7359701;19;20022;-66
2023/10/05 09:49:58;;;;;;;8.38;0.90;;;;;;;17.64;80.04;102114.53;7357070;19;20018;-66
2023/10/05 09:52:48;;;;;;;8.75;0.70;;;;;;;17.70;78.89;102111.19;7356260;19;20534;-66
2023/10/05 09:55:17;;;;;;;16.20;2.03;;;;;;;17.75;78.16;102108.88;7357053;19;20021;-67
2023/10/05 09:57:51;;;;;;;20.30;2.13;;;;;;;17.76;77.39;102112.38;7351952;19;20021;-67
2023/10/05 10:00:47;;;;;;;10.40;0.80;;;;;;;17.75;76.67;102111.53;7352655;19;20011;-66
2023/10/05 10:03:17;;;;;;;9.15;1.05;;;;;;;17.80;76.48;102114.53;7356171;19;20029;-66
2023/10/05 10:05:52;;;;;;;7.45;0.93;;;;;;;17.87;76.90;102110.19;7354988;19;20019;-67
2023/10/05 10:08:21;;;;;;;10.30;0.73;;;;;;;17.95;76.97;102107.50;7344381;19;20039;-67
2023/10/05 10:11:00;;;;;;;6.35;0.68;;;;;;;18.05;77.09;102114.47;7356416;19;20018;-67
2023/10/05 10:13:32;;;;;;;6.63;1.00;;;;;;;18.08;76.05;102109.63;7352887;19;20089;-66
2023/10/05 10:16:02;;;;;;;9.10;0.60;;;;;;;18.09;75.40;102108.63;7355004;19;20346;-66
2023/10/05 10:18:38;;;;;;;5.82;0.82;;;;;;;18.14;75.38;102111.63;7337963;19;20361;-68
2023/10/05 10:21:12;;;;;;;11.07;2.95;;;;;;;18.19;75.87;102119.94;7345727;19;20021;-67
2023/10/05 10:23:40;;;;;;;7.80;0.80;;;;;;;18.20;75.04;102112.78;7355751;19;20022;-67
2023/10/05 10:26:20;;;;;;;6.28;0.75;;;;;;;18.23;74.61;102117.78;7354508;19;20019;-67
2023/10/05 10:31:42;;;;;;;7.05;0.80;;;;;;;18.34;75.08;102120.03;7359218;19;20011;-68
2023/10/05 10:34:28;;;;;;;6.63;0.60;;;;;;;18.37;74.82;102125.06;7356341;19;20014;-67
2023/10/05 10:36:56;;;;;;;5.85;0.57;;;;;;;18.40;73.08;102119.38;7354236;19;20011;-67
2023/10/05 10:39:27;;;;;;;7.38;0.88;;;;;;;18.43;73.41;102113.72;7355851;19;20014;-69
2023/10/05 10:42:12;;;;;;;6.30;0.40;;;;;;;18.47;73.12;102115.03;7353650;19;20735;-68
2023/10/05 10:44:57;;;;;;;7.50;0.90;;;;;;;18.48;71.99;102111.34;7353969;19;20065;-67
2023/10/05 10:47:27;;;;;;;8.65;0.70;;;;;;;18.52;71.98;102110.00;7359124;19;20014;-68
2023/10/05 10:50:16;;;;;;;6.30;0.95;;;;;;;18.58;72.67;102116.50;7338790;19;20396;-67
2023/10/05 10:52:44;;;;;;;5.00;0.50;;;;;;;18.59;70.27;102115.50;7355958;19;20010;-66
2023/10/05 10:55:15;;;;;;;8.25;1.05;;;;;;;18.59;69.46;102102.19;7354703;19;20021;-67
2023/10/05 10:57:47;;;;;;;4.78;0.60;;;;;;;18.60;69.00;102115.31;7351122;19;20027;-67
2023/10/05 11:03:10;;;;;;;8.15;0.80;;;;;;;18.64;69.37;102103.28;7355238;19;20022;-67
2023/10/05 11:05:47;;;;;;;4.30;0.50;;;;;;;18.66;68.46;102101.28;7357661;19;20014;-68
2023/10/05 11:08:15;;;;;;;6.55;0.50;;;;;;;18.72;68.92;102097.09;7356766;19;20022;-67
2023/10/05 11:10:42;;;;;;;7.55;0.60;;;;;;;18.80;70.01;102094.38;7354719;19;20010;-67
2023/10/05 11:13:19;;;;;;;5.70;0.60;;;;;;;18.84;71.02;102093.03;7358612;19;20557;-67
2023/10/05 11:15:58;;;;;;;4.40;0.47;;;;;;;18.80;68.47;102092.53;7353384;19;20022;-67
2023/10/05 11:18:30;;;;;;;3.83;0.40;;;;;;;18.75;66.94;102086.91;7349596;19;20420;-67
2023/10/05 11:21:16;;;;;;;6.63;0.50;;;;;;;18.75;68.19;102091.41;7355798;19;20029;-67
2023/10/05 11:23:43;;;;;;;5.78;0.70;;;;;;;18.73;68.27;102088.94;7352509;19;20014;-68
2023/10/05 11:26:33;;;;;;;3.88;0.60;;;;;;;18.75;67.91;102086.06;7355848;19;20011;-68
2023/10/05 11:29:20;;;;;;;5.45;0.50;;;;;;;18.75;68.10;102094.06;7354147;19;20010;-67
2023/10/05 11:31:51;;;;;;;5.00;0.60;;;;;;;18.77;68.08;102087.56;7359370;19;20483;-67
2023/10/05 11:34:44;;;;;;;5.65;0.40;;;;;;;18.80;68.34;102083.72;7354479;19;20015;-67
2023/10/05 11:37:32;;;;;;;8.07;0.50;;;;;;;18.82;67.41;102075.53;7353983;19;20495;-69
2023/10/05 11:40:01;;;;;;;2.92;0.45;;;;;;;18.89;69.51;102085.34;7356336;19;20010;-66
2023/10/05 11:42:34;;;;;;;4.95;0.50;;;;;;;18.94;69.10;102090.16;7331524;19;20435;-67
2023/10/05 11:45:12;;;;;;;3.95;0.70;;;;;;;18.97;68.06;102085.28;7353304;19;20014;-66
2023/10/05 11:47:45;;;;;;;3.40;0.43;;;;;;;18.99;68.43;102080.63;7353293;19;20470;-67
2023/10/05 11:50:24;;;;;;;3.67;0.50;;;;;;;18.99;68.97;102077.94;7354237;19;20082;-68
2023/10/05 11:52:54;;;;;;;3.20;0.50;;;;;;;18.99;69.84;102077.13;7354036;19;20014;-67
2023/10/05 11:55:21;;;;;;;3.72;0.47;;;;;;;19.02;70.09;102066.06;7355739;19;20386;-67
2023/10/05 11:57:52;;;;;;;5.30;0.50;;;;;;;19.02;70.35;102066.91;7349675;19;21208;-66
2023/10/05 12:00:19;;;;;;;3.53;0.55;;;;;;;19.03;70.59;102073.91;7352497;19;20027;-66
2023/10/05 12:02:47;;;;;;;5.53;0.50;;;;;;;19.06;69.99;102073.53;7349932;19;20018;-66
2023/10/05 12:05:14;;;;;;;6.13;1.83;;;;;;;19.11;69.86;102079.19;7355522;19;20010;-66
2023/10/05 12:07:45;;;;;;;4.63;0.43;;;;;;;19.13;69.91;102082.50;7353314;19;20019;-66
2023/10/05 12:10:13;;;;;;;6.22;0.47;;;;;;;19.14;69.94;102078.84;7335757;19;20578;-65
2023/10/05 12:12:50;;;;;;;6.57;0.60;;;;;;;19.11;68.51;102068.50;7352122;19;20026;-65